Time;durP1;ratioP1;P1;durP2;ratioP2;P2;SDS_P1;SDS_P2;PMS_P1;PMS_P2;Temp;Humidity;BMP_temperature;BMP_pressure;BME280_temperature;BME280_humidity;BME280_pressure;Samples;Min_cycle;Max_cycle;Signal;HPM_P1;HPM_P2
2022/09/21 00:02:08;;;;;;;3.08;1.15;;;;;;;;;;10404466;28;20040;-46
2022/09/21 00:07:09;;;;;;;6.47;1.38;;;;;;;;;;10408219;28;20037;-47
2022/09/21 00:12:09;;;;;;;7.35;1.65;;;;;;;;;;10407575;28;20037;-46
2022/09/21 00:17:09;;;;;;;4.65;1.08;;;;;;;;;;10406314;28;20497;-47
2022/09/21 00:22:09;;;;;;;3.47;1.10;;;;;;;;;;10404324;28;20025;-46
2022/09/21 00:27:10;;;;;;;5.68;1.20;;;;;;;;;;10408942;28;20026;-46
2022/09/21 00:32:10;;;;;;;4.20;1.20;;;;;;;;;;10406878;28;20087;-47
2022/09/21 00:37:10;;;;;;;3.10;1.20;;;;;;;;;;10405287;28;20392;-47
2022/09/21 00:42:17;;;;;;;3.83;1.40;;;;;;;;;;10406958;28;20531;-46
2022/09/21 00:47:40;;;;;;;2.22;1.20;;;;;;;;;;10408808;28;20130;-47
2022/09/21 00:52:42;;;;;;;2.72;1.13;;;;;;;;;;10378811;28;20050;-47
2022/09/21 00:57:43;;;;;;;4.43;1.00;;;;;;;;;;10408120;28;20348;-47
2022/09/21 01:02:44;;;;;;;2.25;1.40;;;;;;;;;;10408266;28;20059;-49
2022/09/21 01:07:46;;;;;;;2.88;1.00;;;;;;;;;;10378920;28;20030;-48
2022/09/21 01:12:54;;;;;;;2.67;1.05;;;;;;;;;;10400147;28;20049;-48
2022/09/21 01:17:54;;;;;;;3.60;1.10;;;;;;;;;;10403704;28;20021;-47
2022/09/21 01:23:13;;;;;;;2.42;1.10;;;;;;;;;;10401073;28;20033;-47
2022/09/21 01:28:16;;;;;;;1.90;1.17;;;;;;;;;;10407457;28;20055;-47
2022/09/21 01:33:24;;;;;;;1.50;1.00;;;;;;;;;;10400246;28;20508;-49
2022/09/21 01:38:28;;;;;;;;;;;;;;;;;;10375408;28;20072;-46
2022/09/21 01:43:32;;;;;;;3.75;1.02;;;;;;;;;;10394474;28;20332;-46
2022/09/21 01:48:35;;;;;;;8.50;1.10;;;;;;;;;;10400242;28;20041;-58
2022/09/21 01:53:37;;;;;;;2.13;1.27;;;;;;;;;;10402326;28;20037;-47
2022/09/21 01:58:41;;;;;;;1.02;0.80;;;;;;;;;;10405054;28;20033;-47
2022/09/21 02:03:44;;;;;;;2.60;1.00;;;;;;;;;;10397160;28;20048;-46
2022/09/21 02:08:45;;;;;;;3.20;0.95;;;;;;;;;;10391303;28;20034;-46
2022/09/21 02:13:47;;;;;;;2.53;0.80;;;;;;;;;;10394899;28;20481;-46
2022/09/21 02:18:56;;;;;;;1.17;1.00;;;;;;;;;;10415632;28;20057;-46
2022/09/21 02:24:20;;;;;;;1.65;1.05;;;;;;;;;;10402754;28;20045;-47
2022/09/21 02:29:26;;;;;;;0.95;0.80;;;;;;;;;;10413660;28;20489;-46
2022/09/21 02:34:33;;;;;;;1.88;0.98;;;;;;;;;;10407274;28;20025;-46
2022/09/21 02:39:36;;;;;;;4.40;0.80;;;;;;;;;;10408719;28;20079;-47
2022/09/21 02:44:44;;;;;;;1.67;0.85;;;;;;;;;;10390681;28;20026;-47
2022/09/21 02:49:47;;;;;;;1.02;0.80;;;;;;;;;;10406509;28;20092;-47
2022/09/21 02:54:50;;;;;;;10.15;1.27;;;;;;;;;;10412306;28;20044;-47
2022/09/21 02:59:51;;;;;;;2.85;0.90;;;;;;;;;;10401631;28;20022;-47
2022/09/21 03:04:52;;;;;;;2.70;1.20;;;;;;;;;;10400043;28;20032;-49
2022/09/21 03:09:53;;;;;;;1.10;0.80;;;;;;;;;;10404155;28;20021;-47
2022/09/21 03:14:54;;;;;;;1.15;0.90;;;;;;;;;;10411423;28;20477;-47
2022/09/21 03:19:55;;;;;;;1.25;0.90;;;;;;;;;;10397811;28;20064;-46
2022/09/21 03:24:56;;;;;;;2.58;1.02;;;;;;;;;;10394844;28;20030;-46
2022/09/21 03:29:56;;;;;;;1.25;0.95;;;;;;;;;;10412656;28;20365;-47
2022/09/21 03:34:56;;;;;;;0.77;0.77;;;;;;;;;;10398201;28;20100;-47
2022/09/21 03:39:57;;;;;;;1.00;0.70;;;;;;;;;;10382777;28;20037;-47
2022/09/21 03:44:58;;;;;;;2.72;1.05;;;;;;;;;;10398899;28;20017;-47
2022/09/21 03:49:58;;;;;;;1.23;0.90;;;;;;;;;;10408039;28;20067;-47
2022/09/21 03:54:58;;;;;;;0.73;0.70;;;;;;;;;;10409850;28;20257;-47
2022/09/21 03:59:59;;;;;;;0.70;0.70;;;;;;;;;;10408195;28;20025;-47
2022/09/21 04:04:59;;;;;;;1.00;0.70;;;;;;;;;;10408819;28;20020;-47
2022/09/21 04:10:00;;;;;;;2.42;0.85;;;;;;;;;;10403098;28;20033;-47
2022/09/21 04:15:00;;;;;;;0.80;0.80;;;;;;;;;;10408366;28;20053;-48
2022/09/21 04:20:01;;;;;;;2.55;1.10;;;;;;;;;;10409068;28;20166;-46
2022/09/21 04:25:03;;;;;;;0.75;0.75;;;;;;;;;;10396399;28;20022;-47
2022/09/21 04:30:04;;;;;;;1.88;0.85;;;;;;;;;;10409790;28;20044;-46
2022/09/21 04:35:05;;;;;;;1.38;1.02;;;;;;;;;;10409207;28;20037;-46
2022/09/21 04:40:06;;;;;;;2.60;1.13;;;;;;;;;;10395413;28;20127;-45
2022/09/21 04:45:07;;;;;;;4.72;1.33;;;;;;;;;;10408875;28;20147;-49
2022/09/21 04:50:07;;;;;;;6.70;1.20;;;;;;;;;;10398238;28;20125;-47
2022/09/21 04:55:08;;;;;;;5.25;0.73;;;;;;;;;;10407996;28;20040;-49
2022/09/21 05:00:08;;;;;;;13.50;1.33;;;;;;;;;;10406009;28;20029;-45
2022/09/21 05:05:09;;;;;;;7.28;1.10;;;;;;;;;;10405146;28;20478;-46
2022/09/21 05:10:10;;;;;;;11.98;1.25;;;;;;;;;;10399724;28;20025;-46
2022/09/21 05:15:10;;;;;;;4.22;0.93;;;;;;;;;;10402991;28;20045;-46
2022/09/21 05:20:10;;;;;;;5.33;1.00;;;;;;;;;;10407719;28;20063;-47
2022/09/21 05:25:10;;;;;;;2.80;0.80;;;;;;;;;;10405703;28;20025;-50
2022/09/21 05:30:11;;;;;;;1.38;0.77;;;;;;;;;;10405059;28;20033;-46
2022/09/21 05:35:17;;;;;;;4.88;1.08;;;;;;;;;;10406291;28;20036;-46
2022/09/21 05:40:17;;;;;;;2.83;0.98;;;;;;;;;;10386695;28;20026;-46
2022/09/21 05:45:19;;;;;;;2.50;0.83;;;;;;;;;;10366723;28;20030;-51
2022/09/21 05:50:23;;;;;;;6.50;0.80;;;;;;;;;;10400244;28;20470;-46
2022/09/21 05:55:27;;;;;;;5.72;0.77;;;;;;;;;;10400612;28;20037;-46
2022/09/21 06:00:34;;;;;;;3.45;0.80;;;;;;;;;;10393860;28;20076;-57
2022/09/21 06:05:34;;;;;;;0.63;0.63;;;;;;;;;;10399930;28;20030;-46
2022/09/21 06:10:35;;;;;;;3.88;1.15;;;;;;;;;;10406728;28;20033;-46
2022/09/21 06:15:37;;;;;;;1.20;1.00;;;;;;;;;;10394281;28;20058;-46
2022/09/21 06:20:37;;;;;;;2.97;1.13;;;;;;;;;;10384023;28;20025;-46
2022/09/21 06:25:37;;;;;;;3.72;0.90;;;;;;;;;;10406127;28;20032;-49
2022/09/21 06:30:39;;;;;;;6.83;1.43;;;;;;;;;;10406784;28;20029;-46
2022/09/21 06:35:39;;;;;;;6.78;1.10;;;;;;;;;;10393263;28;20033;-62
2022/09/21 06:40:40;;;;;;;5.72;1.38;;;;;;;;;;10376759;28;20026;-51
2022/09/21 06:45:40;;;;;;;3.03;1.00;;;;;;;;;;10378676;28;20029;-48
2022/09/21 06:50:41;;;;;;;9.68;1.33;;;;;;;;;;10396523;28;20030;-49
2022/09/21 06:55:41;;;;;;;6.78;1.20;;;;;;;;;;10374642;28;20025;-63
2022/09/21 07:00:41;;;;;;;6.22;1.15;;;;;;;;;;10404868;28;20029;-56
2022/09/21 07:05:45;;;;;;;4.78;1.13;;;;;;;;;;10401145;28;20077;-48
2022/09/21 07:10:45;;;;;;;3.50;1.50;;;;;;;;;;10392102;28;20037;-48
2022/09/21 07:15:45;;;;;;;1.30;0.80;;;;;;;;;;10403492;28;20049;-53
2022/09/21 07:20:47;;;;;;;1.58;0.80;;;;;;;;;;10396952;28;20034;-55
2022/09/21 07:25:49;;;;;;;6.35;1.08;;;;;;;;;;10411179;28;20036;-48
2022/09/21 07:30:49;;;;;;;2.35;1.10;;;;;;;;;;10410343;28;20038;-47
2022/09/21 07:35:55;;;;;;;2.57;1.10;;;;;;;;;;10395711;28;20037;-48
2022/09/21 07:40:55;;;;;;;4.13;1.10;;;;;;;;;;10402618;28;20622;-51
2022/09/21 07:45:56;;;;;;;1.80;1.05;;;;;;;;;;10404835;28;20026;-52
2022/09/21 07:51:00;;;;;;;2.30;1.10;;;;;;;;;;10404281;28;20029;-50
2022/09/21 07:56:02;;;;;;;3.92;1.17;;;;;;;;;;10399604;28;20037;-48
2022/09/21 08:01:05;;;;;;;1.73;0.88;;;;;;;;;;10406686;28;20128;-53
2022/09/21 08:06:06;;;;;;;4.20;1.15;;;;;;;;;;10409849;28;20025;-53
2022/09/21 08:11:07;;;;;;;1.58;0.93;;;;;;;;;;10406318;28;20030;-64
2022/09/21 08:16:07;;;;;;;4.57;0.95;;;;;;;;;;10398910;28;20058;-52
2022/09/21 08:21:09;;;;;;;1.85;0.90;;;;;;;;;;10409266;28;20025;-48
2022/09/21 08:26:13;;;;;;;1.83;1.05;;;;;;;;;;10410022;28;20025;-55
2022/09/21 08:31:14;;;;;;;2.88;1.20;;;;;;;;;;10410270;28;20028;-49
2022/09/21 08:36:14;;;;;;;1.48;0.93;;;;;;;;;;10400309;28;20017;-62
2022/09/21 08:41:30;;;;;;;3.10;1.07;;;;;;;;;;10395055;28;20045;-55
2022/09/21 08:46:31;;;;;;;1.40;0.98;;;;;;;;;;10391863;28;20073;-51
2022/09/21 08:51:35;;;;;;;1.40;1.10;;;;;;;;;;10395490;28;20056;-48
2022/09/21 08:56:35;;;;;;;3.38;1.10;;;;;;;;;;10394992;28;20037;-60
2022/09/21 09:01:53;;;;;;;2.70;1.00;;;;;;;;;;10386221;28;20504;-58
2022/09/21 09:07:16;;;;;;;3.05;0.90;;;;;;;;;;10401854;28;20053;-54
2022/09/21 09:12:27;;;;;;;1.52;0.82;;;;;;;;;;10405275;28;20049;-60
2022/09/21 09:17:45;;;;;;;2.40;0.95;;;;;;;;;;10397082;28;20033;-60
2022/09/21 09:22:45;;;;;;;;;;;;;;;;;;10399985;28;20546;-56
2022/09/21 09:27:47;;;;;;;0.98;0.88;;;;;;;;;;10421015;28;19909;-55
2022/09/21 09:32:50;;;;;;;3.28;0.90;;;;;;;;;;10404590;28;20038;-56
2022/09/21 09:37:53;;;;;;;0.73;0.73;;;;;;;;;;10397547;28;20230;-56
2022/09/21 09:43:10;;;;;;;0.90;0.70;;;;;;;;;;10380415;28;20030;-53
2022/09/21 09:48:11;;;;;;;3.50;0.90;;;;;;;;;;10386029;28;20067;-53
2022/09/21 09:53:11;;;;;;;1.00;0.93;;;;;;;;;;10391039;28;20116;-55
2022/09/21 09:58:22;;;;;;;2.67;1.00;;;;;;;;;;10402709;28;20033;-53
2022/09/21 10:03:23;;;;;;;1.75;0.95;;;;;;;;;;10389727;28;20539;-55
2022/09/21 10:08:28;;;;;;;1.50;1.10;;;;;;;;;;10402604;28;20121;-59
2022/09/21 10:13:33;;;;;;;1.15;0.85;;;;;;;;;;10400031;28;20042;-62
2022/09/21 10:18:55;;;;;;;4.63;1.10;;;;;;;;;;10404316;28;20056;-58
2022/09/21 10:24:00;;;;;;;0.77;0.70;;;;;;;;;;10402574;28;20393;-59
2022/09/21 10:29:01;;;;;;;2.15;0.95;;;;;;;;;;10400125;28;20029;-54
2022/09/21 10:34:15;;;;;;;4.28;0.98;;;;;;;;;;10404942;28;20065;-48
2022/09/21 10:39:15;;;;;;;1.65;0.68;;;;;;;;;;10409895;28;20041;-54
2022/09/21 10:44:16;;;;;;;1.48;0.70;;;;;;;;;;10404776;28;20033;-58
2022/09/21 10:49:22;;;;;;;1.20;0.80;;;;;;;;;;10413192;28;20390;-61
2022/09/21 10:54:25;;;;;;;1.05;0.70;;;;;;;;;;10400528;28;20104;-54
2022/09/21 10:59:30;;;;;;;0.80;0.80;;;;;;;;;;10405135;28;20465;-48
2022/09/21 11:04:37;;;;;;;3.55;0.80;;;;;;;;;;10403543;28;20057;-48
2022/09/21 11:09:41;;;;;;;1.25;0.70;;;;;;;;;;10394722;28;20029;-50
2022/09/21 11:14:41;;;;;;;1.73;0.80;;;;;;;;;;10395256;28;20072;-49
2022/09/21 11:19:48;;;;;;;1.60;1.08;;;;;;;;;;10398273;28;20503;-48
2022/09/21 11:24:59;;;;;;;1.05;0.70;;;;;;;;;;10405844;28;20064;-54
2022/09/21 11:30:02;;;;;;;1.92;0.75;;;;;;;;;;10413201;28;20030;-65
2022/09/21 11:35:03;;;;;;;0.70;0.70;;;;;;;;;;10437184;23;21399;-64
2022/09/21 11:40:03;;;;;;;0.70;0.70;;;;;;;;;;10394787;28;20030;-50
2022/09/21 11:45:17;;;;;;;1.00;0.70;;;;;;;;;;10384940;28;20026;-52
2022/09/21 11:50:32;;;;;;;2.45;0.73;;;;;;;;;;10385580;28;20098;-66
2022/09/21 11:55:43;;;;;;;1.70;1.00;;;;;;;;;;10391992;28;20079;-65
2022/09/21 12:00:50;;;;;;;5.38;1.17;;;;;;;;;;10386950;28;20099;-60
2022/09/21 12:06:09;;;;;;;0.93;0.70;;;;;;;;;;10393969;28;20029;-65
2022/09/21 12:11:15;;;;;;;1.13;0.70;;;;;;;;;;10385479;28;20030;-62
2022/09/21 12:16:20;;;;;;;3.55;0.95;;;;;;;;;;10393462;28;20136;-53
2022/09/21 12:21:21;;;;;;;2.03;0.80;;;;;;;;;;10400998;28;20030;-55
2022/09/21 12:26:25;;;;;;;0.82;0.80;;;;;;;;;;10401925;28;20098;-66
2022/09/21 12:31:28;;;;;;;0.77;0.77;;;;;;;;;;10396300;28;20042;-60
2022/09/21 12:36:38;;;;;;;1.38;1.05;;;;;;;;;;10403491;28;20037;-59
2022/09/21 12:41:47;;;;;;;0.60;0.60;;;;;;;;;;10384737;28;20091;-53
2022/09/21 12:47:16;;;;;;;0.70;0.60;;;;;;;;;;10394605;28;20042;-50
2022/09/21 12:52:19;;;;;;;4.82;0.98;;;;;;;;;;10389831;28;20046;-52
2022/09/21 12:57:32;;;;;;;1.02;0.70;;;;;;;;;;10385485;28;20440;-55
2022/09/21 13:02:47;;;;;;;1.38;0.88;;;;;;;;;;10385885;28;20029;-54
2022/09/21 13:07:56;;;;;;;1.20;0.65;;;;;;;;;;10395974;28;20083;-67
2022/09/21 13:13:00;;;;;;;1.10;0.88;;;;;;;;;;10398763;28;20079;-50
2022/09/21 13:18:05;;;;;;;1.90;0.80;;;;;;;;;;10399281;28;20025;-59
2022/09/21 13:23:12;;;;;;;0.70;0.70;;;;;;;;;;10389817;28;20037;-59
2022/09/21 13:28:15;;;;;;;1.13;0.80;;;;;;;;;;10380242;28;20030;-49
2022/09/21 13:33:15;;;;;;;2.88;0.80;;;;;;;;;;10389935;28;20404;-66
2022/09/21 13:38:36;;;;;;;0.82;0.60;;;;;;;;;;10394943;28;20030;-53
2022/09/21 13:43:46;;;;;;;2.30;0.90;;;;;;;;;;10395510;28;20550;-51
2022/09/21 13:48:51;;;;;;;1.50;0.80;;;;;;;;;;10369875;28;20395;-51
2022/09/21 13:53:54;;;;;;;1.27;0.80;;;;;;;;;;10388325;28;20544;-50
2022/09/21 13:58:56;;;;;;;0.93;0.80;;;;;;;;;;10398821;28;20036;-51
2022/09/21 14:03:58;;;;;;;4.63;0.95;;;;;;;;;;10396385;28;20378;-50
2022/09/21 14:09:01;;;;;;;0.65;0.65;;;;;;;;;;10396550;28;20040;-49
2022/09/21 14:14:01;;;;;;;1.02;0.75;;;;;;;;;;10394562;28;20112;-55
2022/09/21 14:19:03;;;;;;;5.00;1.00;;;;;;;;;;10377958;28;20469;-50
2022/09/21 14:24:33;;;;;;;1.95;0.93;;;;;;;;;;10386062;28;20055;-51
2022/09/21 14:29:51;;;;;;;0.80;0.80;;;;;;;;;;10378344;28;20052;-59
2022/09/21 14:34:52;;;;;;;;;;;;;;;;;;10395006;28;20394;-63
2022/09/21 14:39:52;;;;;;;2.17;1.00;;;;;;;;;;10385570;28;19917;-64
2022/09/21 14:44:55;;;;;;;1.67;0.82;;;;;;;;;;10386109;28;20040;-52
2022/09/21 14:50:08;;;;;;;2.58;0.90;;;;;;;;;;10379245;28;20063;-58
2022/09/21 14:55:17;;;;;;;1.38;0.80;;;;;;;;;;10389941;28;20500;-54
2022/09/21 15:00:25;;;;;;;1.20;0.98;;;;;;;;;;10395415;28;20037;-54
2022/09/21 15:05:31;;;;;;;2.17;1.00;;;;;;;;;;10386159;28;20033;-54
2022/09/21 15:10:56;;;;;;;1.50;0.85;;;;;;;;;;10392554;28;20393;-59
2022/09/21 15:16:20;;;;;;;1.67;0.80;;;;;;;;;;10384462;28;20454;-54
2022/09/21 15:21:28;;;;;;;1.60;0.95;;;;;;;;;;10384849;28;20038;-58
2022/09/21 15:26:31;;;;;;;1.13;0.97;;;;;;;;;;10404402;28;20557;-60
2022/09/21 15:31:32;;;;;;;1.02;0.90;;;;;;;;;;10393684;28;20041;-58
2022/09/21 15:36:35;;;;;;;0.93;0.90;;;;;;;;;;10392299;28;20064;-61
2022/09/21 15:41:43;;;;;;;2.67;0.95;;;;;;;;;;10395299;28;20033;-62
2022/09/21 15:46:45;;;;;;;1.17;0.80;;;;;;;;;;10393843;28;20102;-62
2022/09/21 15:51:55;;;;;;;1.15;0.82;;;;;;;;;;10390489;28;20050;-63
2022/09/21 15:56:55;;;;;;;1.45;1.10;;;;;;;;;;10399710;28;20034;-65
2022/09/21 16:01:57;;;;;;;1.70;0.90;;;;;;;;;;10389753;28;20032;-61
2022/09/21 16:07:03;;;;;;;2.00;1.00;;;;;;;;;;10391526;28;20033;-64
2022/09/21 16:12:22;;;;;;;1.38;0.85;;;;;;;;;;10384750;28;20025;-49
2022/09/21 16:17:33;;;;;;;5.13;1.02;;;;;;;;;;10394861;28;20393;-53
2022/09/21 16:22:34;;;;;;;0.98;0.90;;;;;;;;;;10388912;28;20030;-52
2022/09/21 16:27:34;;;;;;;1.45;0.90;;;;;;;;;;10393337;28;20029;-59
2022/09/21 16:32:34;;;;;;;0.88;0.80;;;;;;;;;;10393834;28;20061;-54
2022/09/21 16:37:35;;;;;;;3.90;0.90;;;;;;;;;;10385115;28;20030;-60
2022/09/21 16:42:35;;;;;;;4.90;1.05;;;;;;;;;;10384967;28;20040;-61
2022/09/21 16:47:36;;;;;;;4.03;1.10;;;;;;;;;;10395087;28;20535;-64
2022/09/21 16:52:36;;;;;;;2.10;0.93;;;;;;;;;;10393502;28;20410;-64
2022/09/21 16:57:37;;;;;;;1.50;0.95;;;;;;;;;;10387220;28;20045;-52
2022/09/21 17:02:44;;;;;;;2.22;0.75;;;;;;;;;;10395741;28;20026;-49
2022/09/21 17:07:52;;;;;;;2.08;0.70;;;;;;;;;;10386594;28;20390;-58
2022/09/21 17:12:53;;;;;;;3.03;0.90;;;;;;;;;;10395791;28;20393;-60
2022/09/21 17:17:57;;;;;;;4.40;0.82;;;;;;;;;;10416761;28;20060;-50
2022/09/21 17:22:57;;;;;;;0.75;0.75;;;;;;;;;;10417342;28;20033;-50
2022/09/21 17:27:58;;;;;;;5.13;0.80;;;;;;;;;;10416332;28;20029;-52
2022/09/21 17:33:00;;;;;;;3.75;0.98;;;;;;;;;;10416338;28;20067;-52
2022/09/21 17:38:01;;;;;;;2.05;0.88;;;;;;;;;;10416174;28;20095;-56
2022/09/21 17:43:21;;;;;;;1.25;0.80;;;;;;;;;;10415484;28;20041;-52
2022/09/21 17:48:21;;;;;;;1.98;0.85;;;;;;;;;;10416263;28;20113;-56
2022/09/21 17:53:36;;;;;;;6.32;0.90;;;;;;;;;;10415491;28;20037;-48
2022/09/21 17:58:48;;;;;;;3.92;1.13;;;;;;;;;;10415402;28;20100;-48
2022/09/21 18:03:49;;;;;;;1.63;0.80;;;;;;;;;;10415252;28;20033;-48
2022/09/21 18:08:52;;;;;;;2.47;0.80;;;;;;;;;;10415860;28;20026;-48
2022/09/21 18:14:12;;;;;;;4.07;1.13;;;;;;;;;;10415453;28;20033;-50
2022/09/21 18:19:13;;;;;;;4.53;1.10;;;;;;;;;;10414775;28;20030;-49
2022/09/21 18:24:18;;;;;;;3.28;1.08;;;;;;;;;;10414828;28;20034;-56
2022/09/21 18:29:23;;;;;;;3.00;1.15;;;;;;;;;;10415493;28;20025;-52
2022/09/21 18:34:36;;;;;;;2.75;0.88;;;;;;;;;;10415909;28;20050;-47
2022/09/21 18:39:53;;;;;;;1.90;1.00;;;;;;;;;;10414902;28;20030;-52
2022/09/21 18:45:04;;;;;;;11.05;1.35;;;;;;;;;;10415137;28;20056;-59
2022/09/21 18:50:07;;;;;;;7.13;1.48;;;;;;;;;;10415269;28;20099;-54
2022/09/21 18:55:22;;;;;;;3.42;1.25;;;;;;;;;;10414727;28;20029;-54
2022/09/21 19:00:30;;;;;;;5.43;1.20;;;;;;;;;;10422287;28;20026;-55
2022/09/21 19:05:32;;;;;;;6.30;1.67;;;;;;;;;;10422011;28;20029;-52
2022/09/21 19:10:37;;;;;;;11.02;2.42;;;;;;;;;;10421776;28;20029;-56
2022/09/21 19:15:44;;;;;;;7.40;2.75;;;;;;;;;;10421490;28;20030;-52
2022/09/21 19:20:57;;;;;;;11.15;3.58;;;;;;;;;;10421384;28;20384;-50
2022/09/21 19:26:14;;;;;;;12.38;2.90;;;;;;;;;;10421251;28;20025;-53
2022/09/21 19:31:19;;;;;;;5.53;2.80;;;;;;;;;;10420849;28;20033;-50
2022/09/21 19:36:20;;;;;;;10.65;3.25;;;;;;;;;;10420819;28;20096;-55
2022/09/21 19:41:39;;;;;;;14.60;3.05;;;;;;;;;;10420612;28;20029;-51
2022/09/21 19:46:59;;;;;;;7.72;3.25;;;;;;;;;;10421246;28;20030;-51
2022/09/21 19:52:02;;;;;;;8.63;2.72;;;;;;;;;;10420231;28;20033;-51
2022/09/21 20:02:39;;;;;;;7.25;2.42;;;;;;;;;;10420844;28;20037;-52
2022/09/21 20:07:45;;;;;;;7.13;2.42;;;;;;;;;;10420671;28;20069;-51
2022/09/21 20:12:51;;;;;;;5.28;2.17;;;;;;;;;;10419363;28;20033;-50
2022/09/21 20:18:06;;;;;;;5.22;2.08;;;;;;;;;;10419306;28;20029;-54
2022/09/21 20:23:09;;;;;;;5.60;2.30;;;;;;;;;;10419435;28;20018;-51
2022/09/21 20:28:10;;;;;;;4.97;2.35;;;;;;;;;;10419546;28;20057;-53
2022/09/21 20:33:18;;;;;;;6.28;2.08;;;;;;;;;;10417485;28;20049;-52
2022/09/21 20:38:19;;;;;;;5.63;2.13;;;;;;;;;;10416614;28;20076;-53
2022/09/21 20:43:21;;;;;;;5.22;2.00;;;;;;;;;;10416316;28;20056;-53
2022/09/21 20:48:22;;;;;;;3.90;1.80;;;;;;;;;;10416242;28;20052;-50
2022/09/21 20:53:23;;;;;;;3.58;1.95;;;;;;;;;;10415925;28;20048;-55
2022/09/21 20:58:24;;;;;;;6.32;2.30;;;;;;;;;;10415877;28;20033;-52
2022/09/21 21:03:25;;;;;;;2.63;1.70;;;;;;;;;;10415571;28;20029;-54
2022/09/21 21:08:26;;;;;;;3.22;1.75;;;;;;;;;;10416171;28;20047;-50
2022/09/21 21:13:30;;;;;;;3.75;1.88;;;;;;;;;;10415836;28;20040;-48
2022/09/21 21:18:31;;;;;;;16.42;2.20;;;;;;;;;;10414661;28;20029;-48
2022/09/21 21:24:38;;;;;;;3.95;1.70;;;;;;;;;;10415406;28;20041;-49
2022/09/21 21:28:53;;;;;;;8.07;1.70;;;;;;;;;;10414841;28;20037;-49
2022/09/21 21:33:54;;;;;;;2.60;1.55;;;;;;;;;;10376342;28;1122536;-49
2022/09/21 21:38:55;;;;;;;2.85;1.30;;;;;;;;;;10416006;28;20091;-48
2022/09/21 21:43:56;;;;;;;4.32;1.63;;;;;;;;;;10415879;28;20025;-50
2022/09/21 21:48:57;;;;;;;2.67;1.10;;;;;;;;;;10415854;28;20033;-49
2022/09/21 21:53:58;;;;;;;2.63;1.20;;;;;;;;;;10415514;28;20025;-49
2022/09/21 21:58:59;;;;;;;6.60;1.02;;;;;;;;;;10415464;28;20030;-48
2022/09/21 22:04:01;;;;;;;2.20;1.00;;;;;;;;;;10416047;28;20030;-49
2022/09/21 22:09:02;;;;;;;1.52;0.90;;;;;;;;;;10415423;28;20029;-51
2022/09/21 22:14:04;;;;;;;1.38;1.10;;;;;;;;;;10415116;28;20099;-49
2022/09/21 22:19:06;;;;;;;0.80;0.80;;;;;;;;;;10415137;28;20033;-50
2022/09/21 22:24:07;;;;;;;2.78;0.75;;;;;;;;;;10415241;28;20021;-49
2022/09/21 22:29:09;;;;;;;2.90;0.95;;;;;;;;;;10414984;28;20034;-50
2022/09/21 22:34:11;;;;;;;1.20;0.98;;;;;;;;;;10421674;28;20037;-50
2022/09/21 22:39:12;;;;;;;1.15;1.02;;;;;;;;;;10423136;28;20362;-49
2022/09/21 22:44:13;;;;;;;2.08;1.00;;;;;;;;;;10422887;28;20063;-50
2022/09/21 22:49:14;;;;;;;0.95;0.90;;;;;;;;;;10423322;28;20059;-49
2022/09/21 22:54:14;;;;;;;1.15;0.98;;;;;;;;;;10422397;28;20029;-49
2022/09/21 22:59:15;;;;;;;1.63;0.90;;;;;;;;;;10422407;28;20090;-49
2022/09/21 23:04:16;;;;;;;6.22;1.00;;;;;;;;;;10422092;28;20159;-50
2022/09/21 23:09:18;;;;;;;1.80;1.07;;;;;;;;;;10421914;28;20020;-51
2022/09/21 23:14:19;;;;;;;6.82;1.23;;;;;;;;;;10421619;28;20087;-51
2022/09/21 23:19:20;;;;;;;3.15;1.10;;;;;;;;;;10421652;28;20072;-49
2022/09/21 23:24:21;;;;;;;1.20;1.10;;;;;;;;;;10421391;28;20424;-51
2022/09/21 23:29:22;;;;;;;4.00;1.02;;;;;;;;;;10422849;28;20120;-50
2022/09/21 23:34:22;;;;;;;1.92;0.93;;;;;;;;;;10420662;28;20140;-48
2022/09/21 23:39:23;;;;;;;2.58;1.17;;;;;;;;;;10420876;28;20025;-49
2022/09/21 23:44:24;;;;;;;1.00;0.90;;;;;;;;;;10420117;28;20116;-49
2022/09/21 23:49:25;;;;;;;2.78;1.23;;;;;;;;;;10421010;28;20113;-48
2022/09/21 23:54:26;;;;;;;2.22;0.90;;;;;;;;;;10420159;28;20112;-50
2022/09/21 23:59:27;;;;;;;3.15;1.05;;;;;;;;;;10420038;28;20106;-49
